Arecibo, Puerto Rico
Current Conditions -  °F | °C
As of 7:50 PM on Saturday 20 Dec 2014 (Local Time) from TJBQ Reporting Station
Scattered Clouds Scattered Clouds  
Wind Chill: 75°   Ceiling: Unl
Heat Index: 75°   Visibility: 10mi
Dew Point: 70°   Wind: 6mph
Humidity: 83%   Direction: 110°ESE
Pressure: 30.04"   Gusts: NA
Location:  18.47°N, 66.71°W
Report Text: TJBQ 202350Z 11005KT 10SM SCT070 24/21 A3004 RMK RWY08 ATIS T
Loading
Personal Weather Stations






























Interactive Weather Map New forecast layout! Learn more

10-Day Weather Forecast

Advertisements
Track Severe Weather on mobile